Time;durP1;ratioP1;P1;durP2;ratioP2;P2;SDS_P1;SDS_P2;PMS_P1;PMS_P2;Temp;Humidity;BMP_temperature;BMP_pressure;BME280_temperature;BME280_humidity;BME280_pressure;Samples;Min_cycle;Max_cycle;Signal;HPM_P1;HPM_P2
2023/03/18 00:00:08;;;;;;;15.10;8.13;;;11.80;99.90;;;;;;4988680;28;20049;-92
2023/03/18 00:02:35;;;;;;;15.07;7.25;;;11.80;99.90;;;;;;4987173;28;20050;-92
2023/03/18 00:05:02;;;;;;;12.27;7.03;;;11.80;99.90;;;;;;5009711;28;20125;-91
2023/03/18 00:07:28;;;;;;;13.30;7.15;;;11.80;99.90;;;;;;5036690;28;20049;-91
2023/03/18 00:09:54;;;;;;;12.13;6.82;;;11.80;99.90;;;;;;5017564;28;20062;-91
2023/03/18 00:12:20;;;;;;;12.73;7.20;;;12.20;99.90;;;;;;5028856;28;20048;-90
2023/03/18 00:14:46;;;;;;;12.73;7.90;;;11.80;99.90;;;;;;5014153;28;20582;-92
2023/03/18 00:17:12;;;;;;;14.35;7.97;;;12.00;99.90;;;;;;5031895;28;20041;-91
2023/03/18 00:19:38;;;;;;;12.65;7.25;;;11.80;99.90;;;;;;5030010;28;20037;-91
2023/03/18 00:22:04;;;;;;;11.20;6.90;;;11.80;99.90;;;;;;5008492;28;20041;-92
2023/03/18 00:24:30;;;;;;;11.98;6.72;;;11.80;99.90;;;;;;5014679;28;20051;-93
2023/03/18 00:26:56;;;;;;;12.45;7.68;;;11.90;99.90;;;;;;5004009;28;20049;-91
2023/03/18 00:29:23;;;;;;;12.40;7.10;;;11.90;99.90;;;;;;5026884;28;20033;-92
2023/03/18 00:31:50;;;;;;;12.02;7.00;;;11.90;99.90;;;;;;5014506;28;20508;-91
2023/03/18 00:34:16;;;;;;;11.55;7.13;;;11.90;99.90;;;;;;4991603;28;20053;-91
2023/03/18 00:36:43;;;;;;;12.07;7.05;;;12.10;99.90;;;;;;5026420;28;20030;-91
2023/03/18 00:39:09;;;;;;;11.15;6.90;;;11.90;99.90;;;;;;5031158;28;20546;-92
2023/03/18 00:41:36;;;;;;;12.05;7.25;;;11.90;99.90;;;;;;5009977;28;20050;-92
2023/03/18 00:44:03;;;;;;;11.38;7.40;;;11.90;99.90;;;;;;5010295;28;20045;-91
2023/03/18 00:46:32;;;;;;;13.60;7.88;;;11.90;99.90;;;;;;4998920;28;20064;-92
2023/03/18 00:49:00;;;;;;;17.95;8.18;;;11.90;99.90;;;;;;5030973;28;20040;-92
2023/03/18 00:51:27;;;;;;;14.85;8.32;;;11.90;99.90;;;;;;5031332;28;20097;-92
2023/03/18 00:53:59;;;;;;;13.07;8.07;;;12.30;99.90;;;;;;5012311;28;20037;-92
2023/03/18 00:56:27;;;;;;;13.38;8.18;;;11.90;99.90;;;;;;5026025;28;20511;-92
2023/03/18 00:58:53;;;;;;;13.95;8.50;;;11.80;99.90;;;;;;4999161;28;20070;-90
2023/03/18 01:01:20;;;;;;;13.45;8.80;;;11.80;99.90;;;;;;5015352;28;20041;-92
2023/03/18 01:03:48;;;;;;;17.05;10.13;;;11.80;99.90;;;;;;5011515;28;20046;-92
2023/03/18 01:06:17;;;;;;;16.95;10.85;;;11.70;99.90;;;;;;5025849;28;20121;-92
2023/03/18 01:08:43;;;;;;;15.00;9.18;;;11.70;99.90;;;;;;5009287;28;20146;-91
2023/03/18 01:11:10;;;;;;;14.93;10.73;;;11.60;99.90;;;;;;5015056;28;20084;-91
2023/03/18 01:13:36;;;;;;;17.70;10.48;;;11.60;99.90;;;;;;5030328;28;20480;-91
2023/03/18 01:16:03;;;;;;;19.55;10.43;;;11.50;99.90;;;;;;5008664;28;20042;-92
2023/03/18 01:18:29;;;;;;;14.77;9.75;;;11.50;99.90;;;;;;5004086;28;20038;-92
2023/03/18 01:20:56;;;;;;;15.93;10.55;;;11.50;99.90;;;;;;5000196;28;20038;-92
2023/03/18 01:23:22;;;;;;;19.98;12.73;;;11.40;99.90;;;;;;5013788;28;20034;-91
2023/03/18 01:25:49;;;;;;;17.88;11.60;;;11.30;99.90;;;;;;5030094;28;20413;-91
2023/03/18 01:28:16;;;;;;;18.40;10.50;;;11.30;99.90;;;;;;5031709;28;20059;-91
2023/03/18 01:30:42;;;;;;;22.50;11.90;;;11.30;99.90;;;;;;4993193;28;20128;-92
2023/03/18 01:33:08;;;;;;;19.17;12.27;;;11.20;99.90;;;;;;5028470;28;20045;-93
2023/03/18 01:35:35;;;;;;;20.85;12.88;;;11.20;99.90;;;;;;5014880;28;20037;-92
2023/03/18 01:38:04;;;;;;;19.20;11.80;;;11.20;99.90;;;;;;5014861;28;20033;-91
2023/03/18 01:40:32;;;;;;;21.75;12.63;;;11.20;99.90;;;;;;5027377;28;20108;-92
2023/03/18 01:43:15;;;;;;;20.58;13.38;;;11.10;99.90;;;;;;5015061;28;20050;-92
2023/03/18 01:45:50;;;;;;;18.33;13.23;;;11.10;99.90;;;;;;5010207;28;20120;-92
2023/03/18 01:48:18;;;;;;;21.60;14.25;;;11.10;99.90;;;;;;5005161;28;20037;-91
2023/03/18 01:50:47;;;;;;;22.75;15.23;;;11.10;99.90;;;;;;5029891;28;20030;-93
2023/03/18 01:53:15;;;;;;;22.13;15.75;;;11.00;99.90;;;;;;5007654;28;20076;-91
2023/03/18 01:55:42;;;;;;;25.48;15.73;;;11.00;99.90;;;;;;4991117;28;20060;-92
2023/03/18 01:58:17;;;;;;;24.95;16.45;;;11.00;99.90;;;;;;5013246;28;20124;-91
2023/03/18 02:00:50;;;;;;;23.05;15.82;;;11.20;99.90;;;;;;4987121;28;20149;-92
2023/03/18 02:03:18;;;;;;;24.50;17.02;;;11.00;99.90;;;;;;4991222;28;20095;-91
2023/03/18 02:05:44;;;;;;;26.70;16.27;;;11.00;99.90;;;;;;5004361;28;20053;-91
2023/03/18 02:08:10;;;;;;;19.88;13.88;;;11.00;99.90;;;;;;5024251;28;20100;-91
2023/03/18 02:10:37;;;;;;;24.30;17.17;;;10.90;99.90;;;;;;5013566;28;20053;-92
2023/03/18 02:13:08;;;;;;;21.08;16.52;;;10.90;99.90;;;;;;5011122;28;20052;-92
2023/03/18 02:16:06;;;;;;;23.08;16.98;;;10.90;99.90;;;;;;5014718;28;20045;-92
2023/03/18 02:18:44;;;;;;;25.75;17.42;;;10.90;99.90;;;;;;4994604;28;20061;-92
2023/03/18 02:21:29;;;;;;;31.67;19.70;;;10.90;99.90;;;;;;5023793;28;20049;-92
2023/03/18 02:24:18;;;;;;;27.45;18.50;;;10.90;99.90;;;;;;5026344;28;20041;-90
2023/03/18 02:27:03;;;;;;;26.85;19.77;;;10.90;99.90;;;;;;5010967;28;20045;-92
2023/03/18 02:29:36;;;;;;;28.00;20.35;;;10.70;99.90;;;;;;5007917;28;20040;-92
2023/03/18 02:32:04;;;;;;;29.10;19.70;;;10.80;99.90;;;;;;5008002;28;20108;-92
2023/03/18 02:34:30;;;;;;;32.63;21.33;;;10.80;99.90;;;;;;5008373;28;20103;-92
2023/03/18 02:36:57;;;;;;;32.92;22.85;;;10.70;99.90;;;;;;5012945;28;20038;-93
2023/03/18 02:39:23;;;;;;;26.50;19.67;;;10.70;99.90;;;;;;5023900;28;20246;-90
2023/03/18 02:41:49;;;;;;;31.42;22.10;;;10.70;99.90;;;;;;5011604;28;20127;-91
2023/03/18 02:44:15;;;;;;;30.98;21.27;;;11.30;99.90;;;;;;5024533;28;20120;-91
2023/03/18 02:46:54;;;;;;;29.98;23.42;;;10.60;99.90;;;;;;5004013;28;20050;-91
2023/03/18 02:49:26;;;;;;;31.08;22.52;;;10.60;99.90;;;;;;5003342;28;20033;-92
2023/03/18 02:51:52;;;;;;;31.08;22.38;;;10.60;99.90;;;;;;5007051;28;20041;-92
2023/03/18 02:54:24;;;;;;;36.45;22.50;;;10.60;99.90;;;;;;5006947;28;20033;-93
2023/03/18 02:56:51;;;;;;;31.52;22.83;;;10.60;99.90;;;;;;5029447;28;20515;-92
2023/03/18 02:59:18;;;;;;;31.17;22.73;;;10.20;99.90;;;;;;5013744;28;20044;-92
2023/03/18 03:01:46;;;;;;;29.50;19.35;;;10.60;99.90;;;;;;5002692;28;20057;-92
2023/03/18 03:04:13;;;;;;;31.02;22.67;;;10.50;99.90;;;;;;5010993;28;20507;-92
2023/03/18 03:06:40;;;;;;;35.15;23.13;;;10.40;99.90;;;;;;5028418;28;20091;-92
2023/03/18 03:09:08;;;;;;;33.45;23.08;;;10.40;99.90;;;;;;5018307;28;20077;-92
2023/03/18 03:11:34;;;;;;;33.35;24.65;;;10.40;99.90;;;;;;4991705;28;20049;-91
2023/03/18 03:14:00;;;;;;;30.67;20.17;;;10.70;99.90;;;;;;5008244;28;20044;-91
2023/03/18 03:16:27;;;;;;;34.13;25.25;;;10.30;99.90;;;;;;5006393;28;20068;-91
2023/03/18 03:18:53;;;;;;;35.30;22.88;;;10.30;99.90;;;;;;5022110;28;20103;-91
2023/03/18 03:21:19;;;;;;;31.70;23.15;;;10.30;99.90;;;;;;5012728;28;20038;-92
2023/03/18 03:23:46;;;;;;;30.92;23.02;;;10.60;99.90;;;;;;5030009;28;20041;-92
2023/03/18 03:26:13;;;;;;;37.53;25.02;;;10.30;99.90;;;;;;4994702;28;20224;-92
2023/03/18 03:28:39;;;;;;;36.42;24.05;;;10.20;99.90;;;;;;4991826;28;20106;-92
2023/03/18 03:31:05;;;;;;;33.50;24.52;;;10.20;99.90;;;;;;5011477;28;20097;-91
2023/03/18 03:33:32;;;;;;;33.38;24.05;;;10.20;99.90;;;;;;4992750;28;20048;-90
2023/03/18 03:35:58;;;;;;;34.70;24.33;;;10.20;99.90;;;;;;5029512;28;20455;-93
2023/03/18 03:38:25;;;;;;;35.47;26.02;;;10.20;99.90;;;;;;4997587;28;20486;-91
2023/03/18 03:40:52;;;;;;;33.13;24.42;;;10.20;99.90;;;;;;5017356;28;20129;-91
2023/03/18 03:43:18;;;;;;;31.55;22.73;;;10.20;99.90;;;;;;5012356;28;20041;-91
2023/03/18 03:45:44;;;;;;;33.05;22.45;;;10.20;99.90;;;;;;4994949;28;20187;-92
2023/03/18 03:48:10;;;;;;;31.25;24.10;;;10.20;99.90;;;;;;5000985;28;20399;-92
2023/03/18 03:50:37;;;;;;;38.53;25.45;;;10.20;99.90;;;;;;5013154;28;20068;-91
2023/03/18 03:53:03;;;;;;;34.72;24.63;;;10.20;99.90;;;;;;5013588;28;20124;-92
2023/03/18 03:55:29;;;;;;;34.22;24.65;;;10.20;99.90;;;;;;4988401;28;20117;-91
2023/03/18 03:57:55;;;;;;;30.25;21.60;;;10.20;99.90;;;;;;5016728;28;20080;-91
2023/03/18 04:00:22;;;;;;;32.13;23.23;;;10.10;99.90;;;;;;5010311;28;20041;-90
2023/03/18 04:02:50;;;;;;;34.67;24.23;;;10.10;99.90;;;;;;5033138;28;20045;-92
2023/03/18 04:05:18;;;;;;;37.90;22.75;;;10.10;99.90;;;;;;5013043;28;20041;-91
2023/03/18 04:07:45;;;;;;;35.08;23.95;;;10.10;99.90;;;;;;5011567;28;20068;-91
2023/03/18 04:10:13;;;;;;;34.33;24.73;;;10.10;99.90;;;;;;5008535;28;20037;-92
2023/03/18 04:12:39;;;;;;;26.30;19.33;;;10.00;99.90;;;;;;4995383;28;20038;-92
2023/03/18 04:15:07;;;;;;;37.17;24.73;;;10.40;99.90;;;;;;5012867;28;20056;-92
2023/03/18 04:17:33;;;;;;;35.97;23.05;;;10.00;99.90;;;;;;5024716;28;20041;-91
2023/03/18 04:19:59;;;;;;;34.38;23.25;;;10.00;99.90;;;;;;5006738;28;20070;-92
2023/03/18 04:22:25;;;;;;;35.42;23.73;;;10.00;99.90;;;;;;5014188;28;20045;-92
2023/03/18 04:24:51;;;;;;;35.60;23.60;;;10.00;99.90;;;;;;5010639;28;20044;-92
2023/03/18 04:27:17;;;;;;;35.40;23.67;;;9.90;99.90;;;;;;5013388;28;20030;-92
2023/03/18 04:29:43;;;;;;;33.47;22.90;;;9.90;99.90;;;;;;5032387;28;20561;-90
2023/03/18 04:32:10;;;;;;;33.63;23.17;;;9.90;99.90;;;;;;5016724;28;20052;-91
2023/03/18 04:34:37;;;;;;;35.03;23.73;;;9.90;99.90;;;;;;5027736;28;20378;-93
2023/03/18 04:37:03;;;;;;;35.33;22.98;;;9.90;99.90;;;;;;5016305;28;20045;-91
2023/03/18 04:39:29;;;;;;;35.78;23.23;;;9.90;99.90;;;;;;5033700;28;20060;-91
2023/03/18 04:41:58;;;;;;;33.38;23.02;;;9.80;99.90;;;;;;5016215;28;20136;-91
2023/03/18 04:44:24;;;;;;;34.20;21.63;;;10.40;99.90;;;;;;5014380;28;20037;-92
2023/03/18 04:46:51;;;;;;;34.85;22.85;;;9.80;99.90;;;;;;4993467;28;20124;-92
2023/03/18 04:49:17;;;;;;;28.70;20.60;;;9.80;99.90;;;;;;5031602;28;20757;-92
2023/03/18 04:51:43;;;;;;;37.35;24.52;;;10.00;99.90;;;;;;5026579;28;20037;-92
2023/03/18 04:54:11;;;;;;;35.30;24.67;;;9.80;99.90;;;;;;5015305;28;20080;-90
2023/03/18 04:56:37;;;;;;;38.17;25.27;;;9.80;99.90;;;;;;4998297;28;20037;-92
2023/03/18 04:59:03;;;;;;;33.05;23.00;;;9.80;99.90;;;;;;5016629;28;20036;-91
2023/03/18 05:01:32;;;;;;;37.47;27.20;;;10.20;99.90;;;;;;5014255;28;20041;-91
2023/03/18 05:03:58;;;;;;;32.63;22.45;;;9.80;99.90;;;;;;5008505;28;20659;-91
2023/03/18 05:06:27;;;;;;;36.25;26.15;;;9.80;99.90;;;;;;5009452;28;20157;-92
2023/03/18 05:08:53;;;;;;;37.88;26.42;;;9.80;99.90;;;;;;5029826;28;20615;-91
2023/03/18 05:11:20;;;;;;;40.30;26.50;;;9.80;99.90;;;;;;5016423;28;20113;-91
2023/03/18 05:13:48;;;;;;;38.85;27.40;;;10.20;99.90;;;;;;5028559;28;20044;-92
2023/03/18 05:16:14;;;;;;;38.10;24.42;;;9.80;99.90;;;;;;5017780;28;20132;-91
2023/03/18 05:18:40;;;;;;;39.38;26.02;;;9.80;99.90;;;;;;4996340;28;20042;-92
2023/03/18 05:21:07;;;;;;;37.08;24.85;;;9.80;99.90;;;;;;5008135;28;20041;-92
2023/03/18 05:23:33;;;;;;;40.05;25.98;;;10.00;99.90;;;;;;4996267;28;20079;-91
2023/03/18 05:26:00;;;;;;;37.20;24.17;;;9.70;99.90;;;;;;5012926;28;20510;-91
2023/03/18 05:28:26;;;;;;;36.83;25.08;;;9.80;99.90;;;;;;5009680;28;20041;-91
2023/03/18 05:30:52;;;;;;;36.13;23.38;;;9.80;99.90;;;;;;5027106;28;20044;-91
2023/03/18 05:33:18;;;;;;;34.38;23.00;;;9.80;99.90;;;;;;5010020;28;20226;-93
2023/03/18 05:35:44;;;;;;;35.28;22.98;;;9.90;99.90;;;;;;5032282;28;20088;-91
2023/03/18 05:38:10;;;;;;;33.90;22.30;;;9.80;99.90;;;;;;5025665;28;20089;-91
2023/03/18 05:40:36;;;;;;;35.28;21.13;;;9.90;99.90;;;;;;4995580;28;20073;-92
2023/03/18 05:43:03;;;;;;;35.55;24.55;;;9.80;99.90;;;;;;5009444;28;20034;-91
2023/03/18 05:45:29;;;;;;;34.58;22.48;;;9.80;99.90;;;;;;5011438;28;20042;-91
2023/03/18 05:47:54;;;;;;;37.25;24.27;;;9.80;99.90;;;;;;5007413;28;20045;-91
2023/03/18 05:50:32;;;;;;;32.38;21.38;;;9.70;99.90;;;;;;4991047;28;20033;-91
2023/03/18 05:52:58;;;;;;;27.73;19.25;;;9.80;99.90;;;;;;5023619;28;20049;-92
2023/03/18 05:55:24;;;;;;;36.65;23.27;;;9.80;99.90;;;;;;4989202;28;20052;-92
2023/03/18 05:57:49;;;;;;;37.72;23.23;;;9.80;99.90;;;;;;5005582;28;20034;-91
2023/03/18 06:00:17;;;;;;;29.13;20.95;;;9.80;99.90;;;;;;5009551;28;20068;-93
2023/03/18 06:02:43;;;;;;;32.08;21.42;;;9.80;99.90;;;;;;5019935;28;20037;-91
2023/03/18 06:05:09;;;;;;;33.15;21.95;;;10.20;99.90;;;;;;5005725;28;20029;-91
2023/03/18 06:07:35;;;;;;;30.38;20.65;;;9.80;99.90;;;;;;5027307;28;20121;-92
2023/03/18 06:10:01;;;;;;;37.70;23.25;;;9.80;99.90;;;;;;5008547;28;20045;-91
2023/03/18 06:12:27;;;;;;;40.47;24.27;;;9.80;99.90;;;;;;5007264;28;20038;-91
2023/03/18 06:14:56;;;;;;;34.53;22.25;;;9.80;99.90;;;;;;5026720;28;20033;-91
2023/03/18 06:17:22;;;;;;;39.65;23.00;;;9.90;99.90;;;;;;5004245;28;20034;-91
2023/03/18 06:19:48;;;;;;;37.72;23.23;;;9.80;99.90;;;;;;5026290;28;20159;-92
2023/03/18 06:22:15;;;;;;;35.00;23.70;;;9.80;99.90;;;;;;5030213;28;20072;-90
2023/03/18 06:24:42;;;;;;;29.83;20.88;;;9.80;99.90;;;;;;5006059;28;20147;-91
2023/03/18 06:27:07;;;;;;;31.52;19.73;;;9.80;99.90;;;;;;5009662;28;20041;-85
2023/03/18 06:29:34;;;;;;;34.40;22.30;;;10.00;99.90;;;;;;5028913;28;20068;-89
2023/03/18 06:32:00;;;;;;;34.78;23.15;;;9.80;99.90;;;;;;4982802;28;20077;-89
2023/03/18 06:34:26;;;;;;;38.72;26.52;;;10.00;99.90;;;;;;5010059;28;20091;-89
2023/03/18 06:36:52;;;;;;;40.30;24.27;;;9.90;99.90;;;;;;5028183;28;20034;-90
2023/03/18 06:39:18;;;;;;;42.45;28.75;;;9.90;99.90;;;;;;4989798;28;20037;-89
2023/03/18 06:41:45;;;;;;;39.33;24.77;;;9.90;99.90;;;;;;4980063;28;20056;-89
2023/03/18 06:44:12;;;;;;;37.78;24.45;;;9.90;99.90;;;;;;5008418;28;20084;-90
2023/03/18 06:46:38;;;;;;;41.95;25.55;;;10.00;99.90;;;;;;5027793;28;20099;-88
2023/03/18 06:49:04;;;;;;;38.97;26.13;;;10.00;99.90;;;;;;5023294;28;20042;-90
2023/03/18 06:51:31;;;;;;;42.65;25.38;;;10.40;99.90;;;;;;5012086;28;20399;-90
2023/03/18 06:53:57;;;;;;;40.60;25.35;;;10.00;99.90;;;;;;5010396;28;20045;-90
2023/03/18 06:56:24;;;;;;;37.15;25.52;;;10.00;99.90;;;;;;5006204;28;20033;-89
2023/03/18 06:58:50;;;;;;;40.15;25.10;;;10.00;99.90;;;;;;5011201;28;20033;-90
2023/03/18 07:01:16;;;;;;;38.95;25.35;;;10.00;99.90;;;;;;5008688;28;20133;-89
2023/03/18 07:03:42;;;;;;;35.72;24.02;;;10.00;99.90;;;;;;5007601;28;20097;-89
2023/03/18 07:06:11;;;;;;;38.25;26.30;;;10.00;99.90;;;;;;5007654;28;20061;-90
2023/03/18 07:08:37;;;;;;;41.00;27.20;;;10.20;99.90;;;;;;4996013;28;20428;-90
2023/03/18 07:11:05;;;;;;;41.20;27.23;;;10.00;99.90;;;;;;4991038;28;20052;-88
2023/03/18 07:13:31;;;;;;;35.97;26.40;;;10.10;99.90;;;;;;5014350;28;20052;-88
2023/03/18 07:15:59;;;;;;;39.60;28.20;;;10.10;99.90;;;;;;5025944;28;20033;-89
2023/03/18 07:18:25;;;;;;;43.53;29.27;;;10.40;99.90;;;;;;5011726;28;20057;-91
2023/03/18 07:20:51;;;;;;;42.38;29.02;;;10.30;99.90;;;;;;5015958;28;20049;-91
2023/03/18 07:23:17;;;;;;;40.15;28.67;;;10.30;99.90;;;;;;5010973;28;20033;-90
2023/03/18 07:25:43;;;;;;;46.95;29.75;;;10.40;99.90;;;;;;5026363;28;20148;-90
2023/03/18 07:28:09;;;;;;;39.95;27.10;;;10.50;99.90;;;;;;5013340;28;20452;-89
2023/03/18 07:30:37;;;;;;;45.05;29.95;;;10.70;99.90;;;;;;4999006;28;20128;-89
2023/03/18 07:33:03;;;;;;;39.65;27.58;;;10.60;99.90;;;;;;5004701;28;20136;-88
2023/03/18 07:35:29;;;;;;;41.90;29.50;;;10.60;99.90;;;;;;5030908;28;20038;-89
2023/03/18 07:37:55;;;;;;;38.13;27.50;;;10.70;99.90;;;;;;5005280;28;20407;-88
2023/03/18 07:40:22;;;;;;;41.50;29.35;;;10.70;99.90;;;;;;5033401;28;20037;-89
2023/03/18 07:42:50;;;;;;;35.75;26.33;;;10.80;99.90;;;;;;5006772;28;20045;-89
2023/03/18 07:45:16;;;;;;;36.80;26.25;;;11.00;99.90;;;;;;4992161;28;20045;-90
2023/03/18 07:47:42;;;;;;;34.42;26.60;;;10.80;99.90;;;;;;5023824;28;20041;-89
2023/03/18 07:50:09;;;;;;;37.90;27.13;;;10.90;99.90;;;;;;5011809;28;20479;-88
2023/03/18 07:52:36;;;;;;;35.20;25.25;;;10.90;99.90;;;;;;5028945;28;20068;-86
2023/03/18 07:55:03;;;;;;;36.20;26.65;;;10.90;99.90;;;;;;5027371;28;20034;-89
2023/03/18 07:57:31;;;;;;;36.42;25.13;;;10.90;99.90;;;;;;4998798;28;20548;-90
2023/03/18 07:59:56;;;;;;;34.10;26.33;;;10.90;99.90;;;;;;5006356;28;20029;-85
2023/03/18 08:02:22;;;;;;;34.25;25.55;;;10.80;99.90;;;;;;5027771;28;20048;-86
2023/03/18 08:04:48;;;;;;;35.22;26.20;;;10.90;99.90;;;;;;4996088;28;20041;-90
2023/03/18 08:07:14;;;;;;;37.88;24.95;;;10.90;99.90;;;;;;5027304;28;20056;-89
2023/03/18 08:09:40;;;;;;;37.85;27.15;;;10.90;99.90;;;;;;4996010;28;20411;-88
2023/03/18 08:12:06;;;;;;;36.30;26.52;;;10.90;99.90;;;;;;5026722;28;20512;-89
2023/03/18 08:14:31;;;;;;;36.22;24.65;;;10.90;99.90;;;;;;5013245;28;20060;-86
2023/03/18 08:16:57;;;;;;;30.92;22.52;;;10.90;99.90;;;;;;5035395;28;20038;-88
2023/03/18 08:19:23;;;;;;;34.10;23.77;;;10.80;99.90;;;;;;5022844;28;20553;-89
2023/03/18 08:21:49;;;;;;;31.65;21.77;;;10.80;99.90;;;;;;5009570;28;20051;-89
2023/03/18 08:24:16;;;;;;;34.35;23.83;;;10.80;99.90;;;;;;5013236;28;20049;-92
2023/03/18 08:26:41;;;;;;;33.17;25.63;;;10.80;99.90;;;;;;5025852;28;20037;-91
2023/03/18 08:29:07;;;;;;;28.42;21.55;;;10.80;99.90;;;;;;5000472;28;20034;-90
2023/03/18 08:31:36;;;;;;;33.83;24.30;;;10.80;99.90;;;;;;5030871;28;20592;-90
2023/03/18 08:34:02;;;;;;;35.03;26.75;;;11.00;99.90;;;;;;5025215;28;20073;-91
2023/03/18 08:36:28;;;;;;;36.70;24.83;;;10.50;99.90;;;;;;5005469;28;20037;-93
2023/03/18 08:38:54;;;;;;;29.92;21.25;;;11.00;99.90;;;;;;5016170;28;20033;-92
2023/03/18 08:41:20;;;;;;;36.03;25.27;;;11.10;99.90;;;;;;5010466;28;20048;-94
2023/03/18 08:43:46;;;;;;;32.60;24.08;;;11.10;99.90;;;;;;5003214;28;20045;-91
2023/03/18 08:46:12;;;;;;;35.65;24.58;;;11.70;99.90;;;;;;4999050;28;20053;-93
2023/03/18 08:48:38;;;;;;;34.55;23.52;;;11.30;99.90;;;;;;4997905;28;20128;-92
2023/03/18 08:51:07;;;;;;;32.15;24.40;;;11.70;99.90;;;;;;5003022;28;20046;-94
2023/03/18 08:53:33;;;;;;;32.58;23.80;;;11.30;99.90;;;;;;4993319;28;20519;-95
2023/03/18 08:56:00;;;;;;;33.17;23.08;;;11.30;99.90;;;;;;4992030;28;20142;-93
2023/03/18 08:58:26;;;;;;;34.53;25.48;;;11.30;99.90;;;;;;5009902;28;20048;-91
2023/03/18 09:00:54;;;;;;;33.30;23.52;;;11.40;99.90;;;;;;5029358;28;20168;-90
2023/03/18 09:03:20;;;;;;;35.38;24.27;;;11.40;99.90;;;;;;5007861;28;20060;-92
2023/03/18 09:05:51;;;;;;;31.52;23.05;;;11.40;99.90;;;;;;4996231;28;20116;-93
2023/03/18 09:08:16;;;;;;;32.72;23.50;;;11.40;99.90;;;;;;5029233;28;20038;-93
2023/03/18 09:10:44;;;;;;;34.88;24.98;;;11.50;99.90;;;;;;5014630;28;20091;-93
2023/03/18 09:13:11;;;;;;;31.88;23.50;;;11.40;99.90;;;;;;5009219;28;20064;-92
2023/03/18 09:15:37;;;;;;;34.50;25.00;;;11.50;99.90;;;;;;5012351;28;20041;-90
2023/03/18 09:18:03;;;;;;;32.47;24.42;;;11.60;99.90;;;;;;5029286;28;20049;-89
2023/03/18 09:20:29;;;;;;;36.55;23.95;;;11.80;99.90;;;;;;4997148;28;20036;-90
2023/03/18 09:22:55;;;;;;;32.47;23.70;;;11.70;99.90;;;;;;5032580;28;20045;-92
2023/03/18 09:25:21;;;;;;;30.08;24.80;;;11.90;99.90;;;;;;5003703;28;20068;-93
2023/03/18 09:27:47;;;;;;;32.40;24.50;;;12.10;99.90;;;;;;5024238;28;20041;-93
2023/03/18 09:30:13;;;;;;;36.92;26.30;;;12.00;99.90;;;;;;4992372;28;20041;-92
2023/03/18 09:32:38;;;;;;;34.10;25.00;;;12.20;99.90;;;;;;5031650;28;20041;-93
2023/03/18 09:35:05;;;;;;;31.08;23.10;;;12.30;99.90;;;;;;5010768;28;20041;-93
2023/03/18 09:37:31;;;;;;;33.75;22.63;;;12.40;99.90;;;;;;5031463;28;20048;-93
2023/03/18 09:39:57;;;;;;;35.90;22.95;;;12.70;99.90;;;;;;5020057;28;20033;-92
2023/03/18 09:42:43;;;;;;;39.70;24.95;;;12.70;99.90;;;;;;4986222;28;20043;-92
2023/03/18 09:45:47;;;;;;;28.85;23.50;;;12.90;99.90;;;;;;4994472;28;20511;-92
2023/03/18 09:48:33;;;;;;;36.65;24.88;;;12.90;99.90;;;;;;5004180;28;20053;-92
2023/03/18 09:50:58;;;;;;;31.30;23.90;;;12.90;99.90;;;;;;5006030;28;20192;-95
2023/03/18 09:53:44;;;;;;;32.90;24.08;;;12.90;99.90;;;;;;4990128;28;20118;-93
2023/03/18 09:56:25;;;;;;;31.60;24.33;;;12.90;99.90;;;;;;4995719;28;20506;-94
2023/03/18 09:58:59;;;;;;;30.58;24.42;;;12.80;99.90;;;;;;4995867;28;20033;-93
2023/03/18 10:01:27;;;;;;;31.55;24.90;;;12.80;99.90;;;;;;5016490;28;20049;-94
2023/03/18 10:04:10;;;;;;;34.08;25.13;;;12.70;99.90;;;;;;4997053;28;20526;-94
2023/03/18 10:06:41;;;;;;;30.50;24.25;;;12.70;99.90;;;;;;5006503;28;20103;-94
2023/03/18 10:09:36;;;;;;;35.70;25.15;;;12.80;99.90;;;;;;5008958;28;20049;-93
2023/03/18 10:12:16;;;;;;;28.92;22.98;;;12.90;99.90;;;;;;5009380;28;20505;-94
2023/03/18 10:15:05;;;;;;;33.00;25.40;;;13.10;99.90;;;;;;5001786;28;20507;-93
2023/03/18 10:17:48;;;;;;;30.75;24.63;;;13.20;99.90;;;;;;4990846;28;20395;-93
2023/03/18 10:20:27;;;;;;;30.42;24.50;;;13.30;99.90;;;;;;4986250;28;20049;-94
2023/03/18 10:23:09;;;;;;;33.03;25.67;;;13.30;99.90;;;;;;5013835;28;20037;-93
2023/03/18 10:25:44;;;;;;;34.10;25.05;;;13.40;99.90;;;;;;5002809;28;20091;-93
2023/03/18 10:28:32;;;;;;;37.30;26.80;;;13.40;99.90;;;;;;5007951;28;20045;-94
2023/03/18 10:31:08;;;;;;;;;;;13.40;99.90;;;;;;5027236;28;20052;-94
2023/03/18 10:33:45;;;;;;;32.22;23.30;;;13.40;99.90;;;;;;4994667;28;19921;-93
2023/03/18 10:36:39;;;;;;;32.33;24.95;;;13.40;99.90;;;;;;5012917;28;20071;-94
2023/03/18 10:39:12;;;;;;;34.15;26.60;;;13.50;99.90;;;;;;5015196;28;20045;-94
2023/03/18 10:41:39;;;;;;;35.15;26.35;;;13.60;99.90;;;;;;5030578;28;20443;-93
2023/03/18 10:44:19;;;;;;;34.80;24.98;;;13.60;99.90;;;;;;5028051;28;20068;-93
2023/03/18 10:46:46;;;;;;;32.20;25.80;;;13.60;99.90;;;;;;5020827;28;20495;-93
2023/03/18 10:49:19;;;;;;;35.17;26.13;;;13.70;99.90;;;;;;5009585;28;20053;-94
2023/03/18 10:51:58;;;;;;;33.25;24.98;;;13.80;99.90;;;;;;5005531;28;20037;-93
2023/03/18 10:54:49;;;;;;;33.55;25.52;;;14.10;99.90;;;;;;5024144;28;20307;-94
2023/03/18 10:57:16;;;;;;;30.73;24.45;;;14.40;99.90;;;;;;5010040;28;20423;-93
2023/03/18 10:59:44;;;;;;;26.48;22.05;;;14.70;99.90;;;;;;5027453;28;20046;-95
2023/03/18 11:02:24;;;;;;;33.75;24.45;;;14.90;99.90;;;;;;5007562;28;20518;-93
2023/03/18 11:05:00;;;;;;;32.88;23.70;;;14.90;99.90;;;;;;5004582;28;20053;-94
2023/03/18 11:07:27;;;;;;;28.88;22.80;;;15.00;99.90;;;;;;4991867;28;20045;-93
2023/03/18 11:09:53;;;;;;;27.60;22.15;;;15.00;99.90;;;;;;5008561;28;20050;-94
2023/03/18 11:12:27;;;;;;;28.15;22.35;;;15.10;99.90;;;;;;4987769;28;20105;-94
2023/03/18 11:14:55;;;;;;;30.90;21.55;;;15.10;99.90;;;;;;4995977;28;20064;-94
2023/03/18 11:17:32;;;;;;;28.15;21.13;;;15.20;99.90;;;;;;5009703;28;20033;-93
2023/03/18 11:20:15;;;;;;;25.42;19.50;;;15.40;99.90;;;;;;5024514;28;20045;-92
2023/03/18 11:22:46;;;;;;;27.45;20.80;;;15.50;99.90;;;;;;5007777;28;20049;-93
2023/03/18 11:25:15;;;;;;;25.75;19.75;;;15.60;99.90;;;;;;5028416;28;20759;-93
2023/03/18 11:28:01;;;;;;;29.13;18.50;;;15.70;99.90;;;;;;4990031;28;20045;-93
2023/03/18 11:30:31;;;;;;;25.75;18.48;;;15.60;99.90;;;;;;4994071;28;20044;-93
2023/03/18 11:33:14;;;;;;;25.75;19.75;;;15.60;99.90;;;;;;4989846;28;20038;-93
2023/03/18 11:35:49;;;;;;;26.50;19.25;;;15.50;99.90;;;;;;5011308;28;20044;-93
2023/03/18 11:38:27;;;;;;;27.83;19.50;;;15.40;99.90;;;;;;5011043;28;20451;-94
2023/03/18 11:41:14;;;;;;;25.77;19.33;;;15.30;99.90;;;;;;5003701;28;20037;-94
2023/03/18 11:43:58;;;;;;;29.15;19.30;;;15.30;99.90;;;;;;5020909;28;20103;-91
2023/03/18 11:46:31;;;;;;;26.30;17.85;;;15.30;99.90;;;;;;4988768;28;20074;-85
2023/03/18 11:48:58;;;;;;;21.65;17.45;;;15.30;99.90;;;;;;5009150;28;20354;-86
2023/03/18 11:51:52;;;;;;;25.85;17.55;;;15.40;99.90;;;;;;5027683;28;20125;-86
2023/03/18 11:54:35;;;;;;;21.45;16.50;;;15.60;99.90;;;;;;5008813;28;20113;-87
2023/03/18 11:57:07;;;;;;;23.08;16.65;;;15.70;99.90;;;;;;5021276;28;20037;-86
2023/03/18 11:59:51;;;;;;;20.70;15.55;;;15.90;99.90;;;;;;5016072;28;20050;-86
2023/03/18 12:02:46;;;;;;;24.58;17.55;;;16.00;99.90;;;;;;5026434;28;20073;-83
2023/03/18 12:05:33;;;;;;;21.10;16.83;;;15.90;99.90;;;;;;5030061;28;20068;-83
2023/03/18 12:08:08;;;;;;;20.27;15.40;;;15.90;99.90;;;;;;5014160;28;20090;-84
2023/03/18 12:10:40;;;;;;;21.27;15.32;;;16.00;99.90;;;;;;5030219;28;20053;-85
2023/03/18 12:13:20;;;;;;;16.92;12.73;;;16.00;99.90;;;;;;5013007;28;20821;-85
2023/03/18 12:16:15;;;;;;;21.75;15.02;;;15.90;99.90;;;;;;5023453;28;20051;-85
2023/03/18 12:18:47;;;;;;;;;;;15.80;99.90;;;;;;5022656;28;20053;-85
2023/03/18 12:21:34;;;;;;;19.90;13.02;;;15.90;99.90;;;;;;5023857;28;19929;-84
2023/03/18 12:25:04;;;;;;;18.27;14.00;;;16.00;99.90;;;;;;5010778;28;20073;-85
2023/03/18 12:27:56;;;;;;;18.60;13.02;;;16.10;99.90;;;;;;4968484;28;20043;-87
2023/03/18 12:30:40;;;;;;;17.92;12.38;;;16.20;99.90;;;;;;4932683;29;20162;-85
2023/03/18 12:33:27;;;;;;;16.70;12.97;;;16.30;99.90;;;;;;4935122;29;20070;-85
2023/03/18 12:36:14;;;;;;;14.65;11.65;;;16.30;99.90;;;;;;4919834;29;20079;-85
2023/03/18 12:39:17;;;;;;;15.00;12.10;;;16.20;99.90;;;;;;4935351;29;20403;-85
2023/03/18 12:41:59;;;;;;;14.27;10.88;;;16.20;99.90;;;;;;4935010;29;20150;-85
2023/03/18 12:44:36;;;;;;;14.93;10.65;;;16.20;99.90;;;;;;4934903;29;20043;-83